sensor_id;sensor_type;location;lat;lon;timestamp;P1;durP1;ratioP1;P2;durP2;ratioP2
44706;SDS011;30433;45.596;8.408;2024-02-28T00:04:59;5.72;;;2.38;;
44706;SDS011;30433;45.596;8.408;2024-02-28T00:11:02;5.78;;;2.10;;
44706;SDS011;30433;45.596;8.408;2024-02-28T00:17:04;4.35;;;2.10;;
44706;SDS011;30433;45.596;8.408;2024-02-28T00:23:07;2.93;;;2.10;;
44706;SDS011;30433;45.596;8.408;2024-02-28T00:29:10;3.05;;;2.20;;
44706;SDS011;30433;45.596;8.408;2024-02-28T00:35:12;3.13;;;2.30;;
44706;SDS011;30433;45.596;8.408;2024-02-28T00:41:15;3.17;;;2.30;;
44706;SDS011;30433;45.596;8.408;2024-02-28T00:47:18;6.03;;;2.55;;
44706;SDS011;30433;45.596;8.408;2024-02-28T00:59:22;1.80;;;1.00;;
44706;SDS011;30433;45.596;8.408;2024-02-28T01:05:25;1.33;;;0.60;;
44706;SDS011;30433;45.596;8.408;2024-02-28T01:17:29;0.73;;;0.50;;
44706;SDS011;30433;45.596;8.408;2024-02-28T01:23:33;0.60;;;0.40;;
44706;SDS011;30433;45.596;8.408;2024-02-28T01:29:35;1.15;;;0.63;;
44706;SDS011;30433;45.596;8.408;2024-02-28T01:35:37;1.52;;;0.50;;
44706;SDS011;30433;45.596;8.408;2024-02-28T01:41:41;5.90;;;1.65;;
44706;SDS011;30433;45.596;8.408;2024-02-28T01:47:43;1.38;;;1.00;;
44706;SDS011;30433;45.596;8.408;2024-02-28T01:53:46;1.63;;;1.00;;
44706;SDS011;30433;45.596;8.408;2024-02-28T01:59:51;2.92;;;0.73;;
44706;SDS011;30433;45.596;8.408;2024-02-28T02:05:55;2.15;;;0.73;;
44706;SDS011;30433;45.596;8.408;2024-02-28T02:11:57;1.65;;;0.63;;
44706;SDS011;30433;45.596;8.408;2024-02-28T02:18:00;1.00;;;0.50;;
44706;SDS011;30433;45.596;8.408;2024-02-28T02:30:06;2.73;;;0.80;;
44706;SDS011;30433;45.596;8.408;2024-02-28T02:36:09;1.80;;;1.08;;
44706;SDS011;30433;45.596;8.408;2024-02-28T02:42:12;2.05;;;1.35;;
44706;SDS011;30433;45.596;8.408;2024-02-28T02:48:15;3.60;;;1.50;;
44706;SDS011;30433;45.596;8.408;2024-02-28T02:54:17;3.60;;;2.80;;
44706;SDS011;30433;45.596;8.408;2024-02-28T03:00:21;6.47;;;3.33;;
44706;SDS011;30433;45.596;8.408;2024-02-28T03:06:23;5.45;;;2.67;;
44706;SDS011;30433;45.596;8.408;2024-02-28T03:12:25;2.45;;;1.20;;
44706;SDS011;30433;45.596;8.408;2024-02-28T03:18:29;2.13;;;1.50;;
44706;SDS011;30433;45.596;8.408;2024-02-28T03:24:31;2.47;;;1.40;;
44706;SDS011;30433;45.596;8.408;2024-02-28T03:30:35;2.83;;;1.80;;
44706;SDS011;30433;45.596;8.408;2024-02-28T03:36:39;2.95;;;1.48;;
44706;SDS011;30433;45.596;8.408;2024-02-28T03:42:41;2.30;;;1.60;;
44706;SDS011;30433;45.596;8.408;2024-02-28T03:48:43;1.83;;;1.60;;
44706;SDS011;30433;45.596;8.408;2024-02-28T03:54:46;2.08;;;1.10;;
44706;SDS011;30433;45.596;8.408;2024-02-28T04:06:51;1.58;;;0.40;;
44706;SDS011;30433;45.596;8.408;2024-02-28T04:12:55;0.57;;;0.43;;
44706;SDS011;30433;45.596;8.408;2024-02-28T04:18:57;2.13;;;0.50;;
44706;SDS011;30433;45.596;8.408;2024-02-28T04:24:59;1.85;;;0.30;;
44706;SDS011;30433;45.596;8.408;2024-02-28T04:31:02;1.20;;;0.20;;
44706;SDS011;30433;45.596;8.408;2024-02-28T04:37:05;1.55;;;0.30;;
44706;SDS011;30433;45.596;8.408;2024-02-28T04:43:07;0.80;;;0.30;;
44706;SDS011;30433;45.596;8.408;2024-02-28T04:49:10;0.70;;;0.20;;
44706;SDS011;30433;45.596;8.408;2024-02-28T04:55:12;0.73;;;0.40;;
44706;SDS011;30433;45.596;8.408;2024-02-28T05:01:15;0.30;;;0.30;;
44706;SDS011;30433;45.596;8.408;2024-02-28T05:07:18;1.45;;;0.30;;
44706;SDS011;30433;45.596;8.408;2024-02-28T05:13:20;1.77;;;0.45;;
44706;SDS011;30433;45.596;8.408;2024-02-28T05:19:24;0.90;;;0.40;;
44706;SDS011;30433;45.596;8.408;2024-02-28T05:25:27;1.48;;;0.60;;
44706;SDS011;30433;45.596;8.408;2024-02-28T05:37:32;2.15;;;0.60;;
44706;SDS011;30433;45.596;8.408;2024-02-28T05:43:37;1.23;;;0.70;;
44706;SDS011;30433;45.596;8.408;2024-02-28T05:49:39;1.45;;;0.70;;
44706;SDS011;30433;45.596;8.408;2024-02-28T05:55:42;1.25;;;0.55;;
44706;SDS011;30433;45.596;8.408;2024-02-28T06:01:45;0.95;;;0.50;;
44706;SDS011;30433;45.596;8.408;2024-02-28T06:07:47;0.90;;;0.47;;
44706;SDS011;30433;45.596;8.408;2024-02-28T06:13:50;0.57;;;0.40;;
44706;SDS011;30433;45.596;8.408;2024-02-28T06:19:54;2.78;;;1.20;;
44706;SDS011;30433;45.596;8.408;2024-02-28T06:25:56;1.70;;;0.80;;
44706;SDS011;30433;45.596;8.408;2024-02-28T06:31:58;2.40;;;1.00;;
44706;SDS011;30433;45.596;8.408;2024-02-28T06:38:02;2.13;;;0.80;;
44706;SDS011;30433;45.596;8.408;2024-02-28T06:44:04;1.02;;;0.38;;
44706;SDS011;30433;45.596;8.408;2024-02-28T06:50:08;2.00;;;0.70;;
44706;SDS011;30433;45.596;8.408;2024-02-28T06:56:12;2.25;;;0.60;;
44706;SDS011;30433;45.596;8.408;2024-02-28T07:08:16;3.42;;;0.60;;
44706;SDS011;30433;45.596;8.408;2024-02-28T07:14:19;2.65;;;0.70;;
44706;SDS011;30433;45.596;8.408;2024-02-28T07:20:21;1.75;;;0.65;;
44706;SDS011;30433;45.596;8.408;2024-02-28T07:26:24;2.50;;;1.05;;
44706;SDS011;30433;45.596;8.408;2024-02-28T07:32:28;2.08;;;0.82;;
44706;SDS011;30433;45.596;8.408;2024-02-28T07:38:34;2.95;;;0.90;;
44706;SDS011;30433;45.596;8.408;2024-02-28T07:44:36;2.40;;;0.98;;
44706;SDS011;30433;45.596;8.408;2024-02-28T07:50:40;1.88;;;1.20;;
44706;SDS011;30433;45.596;8.408;2024-02-28T07:56:43;3.47;;;1.40;;
44706;SDS011;30433;45.596;8.408;2024-02-28T08:02:45;2.70;;;1.45;;
44706;SDS011;30433;45.596;8.408;2024-02-28T08:08:49;2.47;;;1.55;;
44706;SDS011;30433;45.596;8.408;2024-02-28T08:20:53;2.58;;;1.65;;
44706;SDS011;30433;45.596;8.408;2024-02-28T08:26:58;4.07;;;1.77;;
44706;SDS011;30433;45.596;8.408;2024-02-28T08:33:01;5.07;;;1.80;;
44706;SDS011;30433;45.596;8.408;2024-02-28T08:39:03;4.20;;;1.92;;
44706;SDS011;30433;45.596;8.408;2024-02-28T08:45:07;3.57;;;2.20;;
44706;SDS011;30433;45.596;8.408;2024-02-28T08:51:10;3.92;;;1.77;;
44706;SDS011;30433;45.596;8.408;2024-02-28T08:57:13;4.13;;;1.97;;
44706;SDS011;30433;45.596;8.408;2024-02-28T09:03:16;3.83;;;1.70;;
44706;SDS011;30433;45.596;8.408;2024-02-28T09:09:19;2.53;;;1.85;;
44706;SDS011;30433;45.596;8.408;2024-02-28T09:15:21;3.20;;;1.73;;
44706;SDS011;30433;45.596;8.408;2024-02-28T09:21:25;3.22;;;2.50;;
44706;SDS011;30433;45.596;8.408;2024-02-28T09:27:27;4.15;;;3.00;;
44706;SDS011;30433;45.596;8.408;2024-02-28T09:33:29;3.95;;;2.80;;
44706;SDS011;30433;45.596;8.408;2024-02-28T09:39:32;5.00;;;2.67;;
44706;SDS011;30433;45.596;8.408;2024-02-28T09:45:34;4.53;;;2.67;;
44706;SDS011;30433;45.596;8.408;2024-02-28T09:51:37;4.97;;;3.05;;
44706;SDS011;30433;45.596;8.408;2024-02-28T09:57:40;4.18;;;2.72;;
44706;SDS011;30433;45.596;8.408;2024-02-28T10:03:44;4.68;;;3.10;;
44706;SDS011;30433;45.596;8.408;2024-02-28T10:09:48;4.40;;;2.10;;
44706;SDS011;30433;45.596;8.408;2024-02-28T10:15:53;2.60;;;1.60;;
44706;SDS011;30433;45.596;8.408;2024-02-28T10:21:55;3.00;;;1.80;;
44706;SDS011;30433;45.596;8.408;2024-02-28T10:27:59;2.83;;;1.63;;
44706;SDS011;30433;45.596;8.408;2024-02-28T10:34:03;2.13;;;1.23;;
44706;SDS011;30433;45.596;8.408;2024-02-28T10:40:06;1.80;;;1.40;;
44706;SDS011;30433;45.596;8.408;2024-02-28T10:46:09;3.00;;;1.35;;
44706;SDS011;30433;45.596;8.408;2024-02-28T10:52:16;3.90;;;1.08;;
44706;SDS011;30433;45.596;8.408;2024-02-28T10:58:23;2.00;;;0.82;;
44706;SDS011;30433;45.596;8.408;2024-02-28T11:04:26;3.80;;;1.48;;
44706;SDS011;30433;45.596;8.408;2024-02-28T11:10:32;2.53;;;1.63;;
44706;SDS011;30433;45.596;8.408;2024-02-28T11:16:34;3.25;;;1.73;;
44706;SDS011;30433;45.596;8.408;2024-02-28T11:22:37;3.70;;;1.67;;
44706;SDS011;30433;45.596;8.408;2024-02-28T11:28:41;4.20;;;1.80;;
44706;SDS011;30433;45.596;8.408;2024-02-28T11:34:44;2.22;;;1.30;;
44706;SDS011;30433;45.596;8.408;2024-02-28T11:40:48;2.87;;;1.37;;
44706;SDS011;30433;45.596;8.408;2024-02-28T11:46:52;2.00;;;0.95;;
44706;SDS011;30433;45.596;8.408;2024-02-28T11:52:54;2.10;;;1.00;;
44706;SDS011;30433;45.596;8.408;2024-02-28T11:58:58;2.55;;;0.85;;
44706;SDS011;30433;45.596;8.408;2024-02-28T12:05:01;1.23;;;0.70;;
44706;SDS011;30433;45.596;8.408;2024-02-28T12:11:06;1.10;;;0.82;;
44706;SDS011;30433;45.596;8.408;2024-02-28T12:17:08;0.75;;;0.55;;
44706;SDS011;30433;45.596;8.408;2024-02-28T12:23:12;1.17;;;0.80;;
44706;SDS011;30433;45.596;8.408;2024-02-28T12:29:14;3.00;;;0.85;;
44706;SDS011;30433;45.596;8.408;2024-02-28T12:35:16;1.67;;;0.60;;
44706;SDS011;30433;45.596;8.408;2024-02-28T12:41:19;2.80;;;0.90;;
44706;SDS011;30433;45.596;8.408;2024-02-28T12:47:21;2.13;;;1.17;;
44706;SDS011;30433;45.596;8.408;2024-02-28T12:53:23;2.50;;;0.70;;
44706;SDS011;30433;45.596;8.408;2024-02-28T12:59:27;2.80;;;1.10;;
44706;SDS011;30433;45.596;8.408;2024-02-28T13:05:30;3.15;;;1.08;;
44706;SDS011;30433;45.596;8.408;2024-02-28T13:11:33;1.88;;;1.02;;
44706;SDS011;30433;45.596;8.408;2024-02-28T13:17:37;1.77;;;1.30;;
44706;SDS011;30433;45.596;8.408;2024-02-28T13:23:41;4.68;;;1.63;;
44706;SDS011;30433;45.596;8.408;2024-02-28T13:29:43;3.25;;;1.52;;
44706;SDS011;30433;45.596;8.408;2024-02-28T13:35:47;2.75;;;1.50;;
44706;SDS011;30433;45.596;8.408;2024-02-28T13:41:49;3.35;;;1.33;;
44706;SDS011;30433;45.596;8.408;2024-02-28T13:47:52;5.55;;;1.55;;
44706;SDS011;30433;45.596;8.408;2024-02-28T13:53:56;2.22;;;1.65;;
44706;SDS011;30433;45.596;8.408;2024-02-28T13:59:58;3.00;;;1.30;;
44706;SDS011;30433;45.596;8.408;2024-02-28T14:06:00;2.85;;;1.50;;
44706;SDS011;30433;45.596;8.408;2024-02-28T14:12:03;3.08;;;1.05;;
44706;SDS011;30433;45.596;8.408;2024-02-28T14:18:06;2.28;;;0.98;;
44706;SDS011;30433;45.596;8.408;2024-02-28T14:24:09;5.05;;;0.90;;
44706;SDS011;30433;45.596;8.408;2024-02-28T14:30:13;2.43;;;0.70;;
44706;SDS011;30433;45.596;8.408;2024-02-28T14:36:16;3.15;;;0.90;;
44706;SDS011;30433;45.596;8.408;2024-02-28T14:42:20;1.95;;;0.80;;
44706;SDS011;30433;45.596;8.408;2024-02-28T14:48:24;1.80;;;0.90;;
44706;SDS011;30433;45.596;8.408;2024-02-28T14:54:26;4.65;;;0.73;;
44706;SDS011;30433;45.596;8.408;2024-02-28T15:00:28;1.50;;;0.60;;
44706;SDS011;30433;45.596;8.408;2024-02-28T15:06:31;2.00;;;1.30;;
44706;SDS011;30433;45.596;8.408;2024-02-28T15:12:33;3.42;;;0.93;;
44706;SDS011;30433;45.596;8.408;2024-02-28T15:18:37;3.17;;;1.08;;
44706;SDS011;30433;45.596;8.408;2024-02-28T15:24:40;1.63;;;0.80;;
44706;SDS011;30433;45.596;8.408;2024-02-28T15:30:43;2.50;;;0.90;;
44706;SDS011;30433;45.596;8.408;2024-02-28T15:36:47;1.10;;;0.80;;
44706;SDS011;30433;45.596;8.408;2024-02-28T15:42:50;3.22;;;1.35;;
44706;SDS011;30433;45.596;8.408;2024-02-28T15:48:52;2.33;;;1.10;;
44706;SDS011;30433;45.596;8.408;2024-02-28T15:54:54;1.27;;;0.70;;
44706;SDS011;30433;45.596;8.408;2024-02-28T16:00:58;4.23;;;1.07;;
44706;SDS011;30433;45.596;8.408;2024-02-28T16:07:00;2.90;;;1.10;;
44706;SDS011;30433;45.596;8.408;2024-02-28T16:13:03;1.90;;;1.27;;
44706;SDS011;30433;45.596;8.408;2024-02-28T16:19:08;3.60;;;1.90;;
44706;SDS011;30433;45.596;8.408;2024-02-28T16:25:10;3.00;;;1.70;;
44706;SDS011;30433;45.596;8.408;2024-02-28T16:31:12;10.35;;;8.40;;
44706;SDS011;30433;45.596;8.408;2024-02-28T16:37:16;12.20;;;11.00;;
44706;SDS011;30433;45.596;8.408;2024-02-28T16:43:18;3.95;;;2.53;;
44706;SDS011;30433;45.596;8.408;2024-02-28T16:49:20;2.78;;;1.90;;
44706;SDS011;30433;45.596;8.408;2024-02-28T16:55:24;5.97;;;2.07;;
44706;SDS011;30433;45.596;8.408;2024-02-28T17:01:27;3.20;;;1.73;;
44706;SDS011;30433;45.596;8.408;2024-02-28T17:07:29;5.20;;;3.22;;
44706;SDS011;30433;45.596;8.408;2024-02-28T17:13:33;4.13;;;2.33;;
44706;SDS011;30433;45.596;8.408;2024-02-28T17:19:36;4.82;;;2.72;;
44706;SDS011;30433;45.596;8.408;2024-02-28T17:25:38;3.70;;;2.10;;
44706;SDS011;30433;45.596;8.408;2024-02-28T17:31:42;5.07;;;2.22;;
44706;SDS011;30433;45.596;8.408;2024-02-28T17:37:44;77.07;;;36.83;;
44706;SDS011;30433;45.596;8.408;2024-02-28T17:43:46;30.03;;;16.03;;
44706;SDS011;30433;45.596;8.408;2024-02-28T17:49:50;9.00;;;5.28;;
44706;SDS011;30433;45.596;8.408;2024-02-28T17:55:53;8.90;;;6.82;;
44706;SDS011;30433;45.596;8.408;2024-02-28T18:01:55;10.52;;;8.32;;
44706;SDS011;30433;45.596;8.408;2024-02-28T18:07:59;9.45;;;5.00;;
44706;SDS011;30433;45.596;8.408;2024-02-28T18:14:03;10.07;;;8.55;;
44706;SDS011;30433;45.596;8.408;2024-02-28T18:20:05;15.63;;;12.13;;
44706;SDS011;30433;45.596;8.408;2024-02-28T18:32:12;20.15;;;16.88;;
44706;SDS011;30433;45.596;8.408;2024-02-28T18:38:14;27.88;;;24.00;;
44706;SDS011;30433;45.596;8.408;2024-02-28T18:44:18;27.03;;;19.50;;
44706;SDS011;30433;45.596;8.408;2024-02-28T18:50:20;21.10;;;16.05;;
44706;SDS011;30433;45.596;8.408;2024-02-28T18:56:24;20.90;;;15.63;;
44706;SDS011;30433;45.596;8.408;2024-02-28T19:02:28;24.52;;;19.35;;
44706;SDS011;30433;45.596;8.408;2024-02-28T19:08:33;19.73;;;15.55;;
44706;SDS011;30433;45.596;8.408;2024-02-28T19:14:36;19.17;;;14.85;;
44706;SDS011;30433;45.596;8.408;2024-02-28T19:20:40;8.65;;;6.68;;
44706;SDS011;30433;45.596;8.408;2024-02-28T19:26:42;12.45;;;6.88;;
44706;SDS011;30433;45.596;8.408;2024-02-28T19:32:44;11.55;;;6.97;;
44706;SDS011;30433;45.596;8.408;2024-02-28T19:38:48;10.35;;;6.93;;
44706;SDS011;30433;45.596;8.408;2024-02-28T19:44:50;10.95;;;8.30;;
44706;SDS011;30433;45.596;8.408;2024-02-28T19:50:52;9.05;;;7.35;;
44706;SDS011;30433;45.596;8.408;2024-02-28T19:56:56;10.82;;;6.45;;
44706;SDS011;30433;45.596;8.408;2024-02-28T20:02:58;9.02;;;6.32;;
44706;SDS011;30433;45.596;8.408;2024-02-28T20:09:00;8.82;;;5.85;;
44706;SDS011;30433;45.596;8.408;2024-02-28T20:15:04;11.45;;;6.22;;
44706;SDS011;30433;45.596;8.408;2024-02-28T20:21:07;9.10;;;5.63;;
44706;SDS011;30433;45.596;8.408;2024-02-28T20:27:11;8.73;;;5.10;;
44706;SDS011;30433;45.596;8.408;2024-02-28T20:33:14;10.95;;;6.25;;
44706;SDS011;30433;45.596;8.408;2024-02-28T20:39:18;8.55;;;5.97;;
44706;SDS011;30433;45.596;8.408;2024-02-28T20:45:20;7.28;;;4.88;;
44706;SDS011;30433;45.596;8.408;2024-02-28T20:51:24;7.53;;;4.35;;
44706;SDS011;30433;45.596;8.408;2024-02-28T20:57:26;7.43;;;5.07;;
44706;SDS011;30433;45.596;8.408;2024-02-28T21:03:28;7.07;;;4.30;;
44706;SDS011;30433;45.596;8.408;2024-02-28T21:09:32;6.47;;;4.20;;
44706;SDS011;30433;45.596;8.408;2024-02-28T21:15:35;8.05;;;4.47;;
44706;SDS011;30433;45.596;8.408;2024-02-28T21:21:38;7.93;;;4.68;;
44706;SDS011;30433;45.596;8.408;2024-02-28T21:27:42;8.50;;;4.13;;
44706;SDS011;30433;45.596;8.408;2024-02-28T21:33:44;7.20;;;3.83;;
44706;SDS011;30433;45.596;8.408;2024-02-28T21:39:47;4.63;;;3.17;;
44706;SDS011;30433;45.596;8.408;2024-02-28T21:45:50;5.05;;;2.90;;
44706;SDS011;30433;45.596;8.408;2024-02-28T21:51:52;6.75;;;3.25;;
44706;SDS011;30433;45.596;8.408;2024-02-28T21:57:54;5.43;;;3.55;;
44706;SDS011;30433;45.596;8.408;2024-02-28T22:03:58;7.07;;;3.25;;
44706;SDS011;30433;45.596;8.408;2024-02-28T22:10:00;5.47;;;3.00;;
44706;SDS011;30433;45.596;8.408;2024-02-28T22:16:03;6.10;;;3.43;;
44706;SDS011;30433;45.596;8.408;2024-02-28T22:22:07;5.65;;;3.20;;
44706;SDS011;30433;45.596;8.408;2024-02-28T22:28:09;6.13;;;3.20;;
44706;SDS011;30433;45.596;8.408;2024-02-28T22:34:11;5.32;;;2.60;;
44706;SDS011;30433;45.596;8.408;2024-02-28T22:40:14;3.70;;;2.50;;
44706;SDS011;30433;45.596;8.408;2024-02-28T22:46:17;3.90;;;2.00;;
44706;SDS011;30433;45.596;8.408;2024-02-28T22:58:23;6.03;;;2.55;;
44706;SDS011;30433;45.596;8.408;2024-02-28T23:04:25;4.20;;;2.30;;
44706;SDS011;30433;45.596;8.408;2024-02-28T23:10:27;5.55;;;2.20;;
44706;SDS011;30433;45.596;8.408;2024-02-28T23:16:31;3.70;;;2.38;;
44706;SDS011;30433;45.596;8.408;2024-02-28T23:22:33;4.50;;;2.20;;
44706;SDS011;30433;45.596;8.408;2024-02-28T23:28:35;3.92;;;2.00;;
44706;SDS011;30433;45.596;8.408;2024-02-28T23:34:39;3.53;;;2.20;;
44706;SDS011;30433;45.596;8.408;2024-02-28T23:40:41;5.93;;;2.65;;
44706;SDS011;30433;45.596;8.408;2024-02-28T23:46:43;4.28;;;2.55;;
44706;SDS011;30433;45.596;8.408;2024-02-28T23:52:47;4.05;;;2.80;;
44706;SDS011;30433;45.596;8.408;2024-02-28T23:58:49;4.40;;;2.70;;
